Time;durP1;ratioP1;P1;durP2;ratioP2;P2;SDS_P1;SDS_P2;PMS_P1;PMS_P2;Temp;Humidity;BMP_temperature;BMP_pressure;BME280_temperature;BME280_humidity;BME280_pressure;Samples;Min_cycle;Max_cycle;Signal;HPM_P1;HPM_P2
2021/04/03 00:00:20;;;;;;;13.13;9.57;;;;;;;3.57;69.14;101010.19;2091296;28;20028;-88
2021/04/03 00:01:20;;;;;;;15.00;9.35;;;;;;;3.63;69.22;101006.81;2088718;28;20024;-89
2021/04/03 00:02:20;;;;;;;15.20;9.57;;;;;;;3.65;69.05;101006.84;2089129;28;20843;-88
2021/04/03 00:03:23;;;;;;;15.13;8.67;;;;;;;3.69;69.14;101006.88;2089917;28;20150;-88
2021/04/03 00:04:23;;;;;;;13.73;9.20;;;;;;;3.68;69.14;101010.31;2089803;28;20380;-88
2021/04/03 00:05:25;;;;;;;15.27;10.03;;;;;;;3.74;69.06;101007.81;2090046;28;20033;-90
2021/04/03 00:06:26;;;;;;;19.45;10.07;;;;;;;3.77;68.90;101013.88;2090839;28;20029;-87
2021/04/03 00:07:26;;;;;;;17.53;8.97;;;;;;;3.80;68.71;101013.88;2089998;28;20081;-89
2021/04/03 00:08:27;;;;;;;15.37;9.60;;;;;;;3.83;68.71;101021.66;2087732;28;20082;-85
2021/04/03 00:09:27;;;;;;;12.67;9.13;;;;;;;3.84;68.84;101020.81;2085059;28;20045;-81
2021/04/03 00:10:31;;;;;;;17.30;9.70;;;;;;;3.87;68.53;101016.53;2093974;28;20569;-80
2021/04/03 00:11:31;;;;;;;13.85;9.50;;;;;;;3.91;68.48;101017.44;2090624;28;20025;-81
2021/04/03 00:12:31;;;;;;;14.27;9.30;;;;;;;3.93;68.38;101022.59;2088281;28;20558;-80
2021/04/03 00:13:36;;;;;;;15.03;9.43;;;;;;;3.95;68.28;101023.47;2088309;28;20032;-80
2021/04/03 00:14:37;;;;;;;15.55;8.73;;;;;;;3.95;68.54;101020.91;2081078;28;20040;-81
2021/04/03 00:15:37;;;;;;;13.77;9.27;;;;;;;3.98;68.76;101020.94;2083927;28;20111;-82
2021/04/03 00:16:38;;;;;;;14.18;9.02;;;;;;;4.01;68.74;101032.16;2083503;28;20111;-81
2021/04/03 00:17:38;;;;;;;17.13;9.87;;;;;;;4.04;68.57;101027.03;2087966;28;20040;-81
2021/04/03 00:18:38;;;;;;;14.07;9.20;;;;;;;4.06;68.30;101029.63;2087058;28;20035;-83
2021/04/03 00:19:39;;;;;;;12.17;9.37;;;;;;;4.09;68.18;101028.78;2087162;28;20025;-80
2021/04/03 00:20:40;;;;;;;17.67;9.23;;;;;;;4.08;68.23;101022.78;2086978;28;20016;-80
2021/04/03 00:21:40;;;;;;;18.58;9.48;;;;;;;4.08;68.22;101027.06;2086764;28;20630;-83
2021/04/03 00:22:42;;;;;;;15.87;9.70;;;;;;;4.06;68.28;101029.63;2088157;28;20029;-79
2021/04/03 00:23:42;;;;;;;13.35;8.95;;;;;;;4.10;68.35;101015.03;2084335;28;20013;-79
2021/04/03 00:24:42;;;;;;;15.87;8.77;;;;;;;4.12;68.13;101021.94;2087445;28;20024;-78
2021/04/03 00:25:43;;;;;;;18.47;9.23;;;;;;;4.14;67.88;101017.66;2087257;28;20029;-78
2021/04/03 00:26:43;;;;;;;16.60;9.23;;;;;;;4.13;67.76;101015.06;2088387;28;20029;-78
2021/04/03 00:27:44;;;;;;;13.27;8.80;;;;;;;4.15;67.34;101018.53;2087673;28;20484;-74
2021/04/03 00:28:44;;;;;;;17.30;9.48;;;;;;;4.16;67.05;101015.13;2081975;28;20480;-74
2021/04/03 00:29:44;;;;;;;14.43;9.37;;;;;;;4.17;66.92;101011.66;2087880;28;20016;-74
2021/04/03 00:30:45;;;;;;;15.83;8.87;;;;;;;4.15;67.22;101016.81;2087814;28;20055;-74
2021/04/03 00:31:45;;;;;;;15.13;9.30;;;;;;;4.16;67.50;101012.53;2088177;28;20029;-74
2021/04/03 00:32:50;;;;;;;20.80;9.17;;;;;;;4.12;67.57;101015.91;2086860;28;20039;-74
2021/04/03 00:33:51;;;;;;;15.80;9.63;;;;;;;4.13;67.68;101009.91;2083510;28;20029;-74
2021/04/03 00:34:51;;;;;;;14.57;8.50;;;;;;;4.07;67.77;101009.84;2088329;28;20021;-74
2021/04/03 00:35:52;;;;;;;13.50;9.13;;;;;;;4.01;67.88;101010.66;2086451;28;20029;-74
2021/04/03 00:36:52;;;;;;;11.75;8.85;;;;;;;3.93;67.96;101008.00;2088419;28;20025;-74
2021/04/03 00:37:54;;;;;;;14.73;10.10;;;;;;;3.77;68.48;100995.81;2087233;28;20490;-74
2021/04/03 00:38:54;;;;;;;17.33;8.85;;;;;;;3.61;68.75;101002.50;2086163;28;20556;-74
2021/04/03 00:39:54;;;;;;;15.67;9.63;;;;;;;3.47;69.23;101000.63;2087704;28;20078;-74
2021/04/03 00:40:55;;;;;;;14.37;10.00;;;;;;;3.39;69.85;100997.09;2083249;28;20030;-74
2021/04/03 00:41:55;;;;;;;16.10;9.63;;;;;;;3.24;70.43;101001.19;2087882;28;20033;-74
2021/04/03 00:43:00;;;;;;;13.70;9.03;;;;;;;3.12;70.65;101001.06;2088302;28;20521;-74
2021/04/03 00:44:00;;;;;;;16.13;9.63;;;;;;;3.02;71.17;101000.06;2086458;28;20063;-74
2021/04/03 00:45:01;;;;;;;14.40;8.70;;;;;;;2.95;71.29;100998.25;2087058;28;20075;-74
2021/04/03 00:46:01;;;;;;;18.73;9.37;;;;;;;2.99;71.35;100994.00;2088286;28;20047;-73
2021/04/03 00:47:02;;;;;;;15.20;9.27;;;;;;;2.95;71.37;100993.94;2088083;28;20037;-74
2021/04/03 00:48:04;;;;;;;13.33;8.83;;;;;;;2.89;71.96;100995.59;2086878;28;20043;-74
2021/04/03 00:49:06;;;;;;;15.05;9.68;;;;;;;2.80;72.44;100994.59;2086796;28;20942;-74
2021/04/03 00:50:07;;;;;;;14.40;9.07;;;;;;;2.82;72.70;100996.34;2085060;28;20056;-74
2021/04/03 00:51:09;;;;;;;18.20;10.13;;;;;;;2.73;72.99;100992.78;2086078;28;20092;-74
2021/04/03 00:52:10;;;;;;;;;;;;;;;2.62;73.15;100995.22;2086572;28;20029;-74
2021/04/03 00:53:16;;;;;;;14.50;8.77;;;;;;;2.59;73.59;100995.16;2086545;28;19915;-74
2021/04/03 00:54:17;;;;;;;14.02;10.10;;;;;;;2.52;73.76;100990.75;2090123;28;20028;-74
2021/04/03 00:55:17;;;;;;;16.23;9.73;;;;;;;2.48;73.71;100999.25;2095780;28;20056;-74
2021/04/03 00:56:18;;;;;;;15.93;9.40;;;;;;;2.49;73.66;101004.44;2087472;28;20089;-74
2021/04/03 00:57:19;;;;;;;16.53;10.10;;;;;;;2.57;73.81;100999.41;2088208;28;20131;-74
2021/04/03 00:58:21;;;;;;;16.00;9.98;;;;;;;2.58;73.43;101000.28;2087457;28;20032;-74
2021/04/03 00:59:21;;;;;;;18.60;9.57;;;;;;;2.58;73.36;101006.28;2087073;28;20043;-74
2021/04/03 01:00:22;;;;;;;13.57;9.87;;;;;;;2.52;73.83;100995.03;2083508;28;20500;-74
2021/04/03 01:01:22;;;;;;;15.17;10.17;;;;;;;2.53;73.72;100999.34;2082431;28;20021;-74
2021/04/03 01:02:23;;;;;;;16.10;9.73;;;;;;;2.52;73.57;101000.16;2088100;28;20098;-74
2021/04/03 01:03:24;;;;;;;14.67;9.57;;;;;;;2.57;73.13;100990.84;2084228;28;20033;-74
2021/04/03 01:04:25;;;;;;;16.05;9.73;;;;;;;2.59;73.05;100996.88;2079532;28;20021;-74
2021/04/03 01:05:27;;;;;;;17.13;9.83;;;;;;;2.62;73.45;100992.63;2081487;28;20048;-74
2021/04/03 01:06:27;;;;;;;12.90;9.55;;;;;;;2.76;72.60;100987.69;2087426;28;20468;-74
2021/04/03 01:07:27;;;;;;;18.40;11.40;;;;;;;2.78;72.48;100986.00;2085586;28;20033;-74
2021/04/03 01:08:27;;;;;;;15.40;9.17;;;;;;;2.83;72.22;100990.34;2087944;28;20448;-73
2021/04/03 01:09:28;;;;;;;16.13;9.53;;;;;;;2.89;72.32;100993.88;2087902;28;20086;-74
2021/04/03 01:10:35;;;;;;;14.77;9.10;;;;;;;2.95;72.14;100999.09;2084198;28;20616;-74
2021/04/03 01:11:40;;;;;;;14.60;9.60;;;;;;;3.04;71.73;100995.78;2087287;28;20033;-74
2021/04/03 01:13:19;;;;;;;16.52;9.30;;;;;;;3.06;71.63;100991.53;2086576;28;20555;-74
2021/04/03 01:14:34;;;;;;;15.55;9.10;;;;;;;3.14;71.29;100993.34;2066524;28;20042;-74
2021/04/03 01:16:02;;;;;;;13.18;9.52;;;;;;;3.17;70.60;100981.38;2072020;28;20030;-74
2021/04/03 01:17:29;;;;;;;17.48;8.90;;;;;;;3.15;70.41;100979.63;2086067;28;20044;-74
2021/04/03 01:18:51;;;;;;;17.02;8.95;;;;;;;3.08;70.74;100973.53;2087476;28;20116;-74
2021/04/03 01:20:16;;;;;;;15.68;9.15;;;;;;;3.10;70.62;100985.56;2095049;28;20050;-74
2021/04/03 01:21:35;;;;;;;15.30;9.30;;;;;;;3.14;70.72;100993.34;2092166;28;20037;-74
2021/04/03 01:22:54;;;;;;;18.27;8.75;;;;;;;3.19;70.17;100989.09;2087618;28;20020;-73
2021/04/03 01:24:21;;;;;;;16.13;9.07;;;;;;;3.22;70.30;100986.56;2087360;28;20021;-73
2021/04/03 01:25:44;;;;;;;13.00;8.90;;;;;;;3.29;69.84;100995.25;2087703;28;20096;-73
2021/04/03 01:27:22;;;;;;;14.90;8.88;;;;;;;3.31;69.51;100984.09;2087879;28;20040;-74
2021/04/03 01:28:43;;;;;;;14.15;8.30;;;;;;;3.30;69.36;100984.94;2085155;28;20025;-74
2021/04/03 01:29:52;;;;;;;12.55;7.78;;;;;;;3.31;69.47;100986.69;2084751;28;20040;-74
2021/04/03 01:30:52;;;;;;;16.55;8.88;;;;;;;3.28;69.50;100986.66;2085798;28;20029;-74
2021/04/03 01:31:54;;;;;;;14.97;8.53;;;;;;;3.28;69.46;100986.66;2087712;28;20028;-74
2021/04/03 01:33:01;;;;;;;;;;;;;;;3.28;69.56;100981.53;2083218;28;20119;-74
2021/04/03 01:34:02;;;;;;;19.45;7.97;;;;;;;3.32;69.24;100988.41;2084564;28;19917;-74
2021/04/03 01:35:06;;;;;;;13.65;7.75;;;;;;;3.33;70.55;100989.31;2085930;28;20038;-74
2021/04/03 01:36:18;;;;;;;14.43;8.25;;;;;;;3.32;70.02;100985.00;2080370;28;20581;-74
2021/04/03 01:37:22;;;;;;;14.05;8.80;;;;;;;3.33;69.42;100979.84;2084472;28;20489;-74
2021/04/03 01:38:42;;;;;;;11.60;7.75;;;;;;;3.34;68.93;100973.84;2087642;28;20036;-74
2021/04/03 01:39:45;;;;;;;13.52;8.15;;;;;;;3.40;68.69;100976.50;2086622;28;20083;-74
2021/04/03 01:40:49;;;;;;;14.70;8.07;;;;;;;3.41;68.75;100977.38;2087132;28;20082;-74
2021/04/03 01:41:53;;;;;;;14.95;7.78;;;;;;;3.37;68.69;100973.91;2085363;28;20110;-74
2021/04/03 01:43:02;;;;;;;13.73;7.63;;;;;;;3.40;68.16;100973.06;2084301;28;20039;-74
2021/04/03 01:44:07;;;;;;;12.98;7.40;;;;;;;3.35;68.96;100973.00;2086242;28;20036;-74
2021/04/03 01:45:08;;;;;;;15.93;8.60;;;;;;;3.39;68.62;100972.19;2080714;28;20037;-74
2021/04/03 01:46:10;;;;;;;12.18;7.05;;;;;;;3.42;68.69;100973.94;2087961;28;20430;-74
2021/04/03 01:47:10;;;;;;;;;;;;;;;3.44;68.65;100977.38;2086780;28;20510;-74
2021/04/03 01:48:15;;;;;;;12.93;7.47;;;;;;;3.48;68.34;100970.59;2087824;28;19963;-74
2021/04/03 01:49:17;;;;;;;11.10;6.53;;;;;;;3.49;67.75;100967.13;2086615;28;20601;-81
2021/04/03 01:50:19;;;;;;;14.07;7.32;;;;;;;3.51;67.97;100968.00;2086081;28;20021;-79
2021/04/03 01:51:20;;;;;;;12.35;7.40;;;;;;;3.57;67.72;100968.97;2088249;28;20545;-84
2021/04/03 01:52:24;;;;;;;14.50;7.25;;;;;;;3.59;68.13;100958.66;2088774;28;20466;-83
2021/04/03 01:53:24;;;;;;;12.55;7.05;;;;;;;3.63;67.82;100963.00;2088696;28;20036;-83
2021/04/03 01:54:26;;;;;;;10.05;6.90;;;;;;;3.63;67.71;100957.84;2087015;28;20024;-82
2021/04/03 01:55:28;;;;;;;17.80;6.45;;;;;;;3.68;67.66;100956.16;2086357;28;20730;-81
2021/04/03 01:56:30;;;;;;;12.88;6.63;;;;;;;3.65;67.48;100961.31;2085187;28;20447;-82
2021/04/03 01:57:32;;;;;;;15.02;7.40;;;;;;;3.67;67.35;100959.63;2087201;28;20123;-82
2021/04/03 01:58:34;;;;;;;10.55;7.05;;;;;;;3.68;67.36;100961.31;2087474;28;20154;-83
2021/04/03 01:59:37;;;;;;;11.07;7.45;;;;;;;3.68;67.41;100966.47;2082403;28;20032;-83
2021/04/03 02:00:39;;;;;;;11.63;6.85;;;;;;;3.67;67.48;100963.91;2085224;28;20505;-84
2021/04/03 02:01:41;;;;;;;11.25;6.60;;;;;;;3.68;67.22;100968.22;2085888;28;20037;-82
2021/04/03 02:02:43;;;;;;;12.00;6.55;;;;;;;3.67;67.50;100967.34;2087517;28;20669;-84
2021/04/03 02:03:46;;;;;;;;;;;;;;;3.66;67.20;100968.19;2082290;28;20025;-85
2021/04/03 02:04:47;;;;;;;16.90;6.63;;;;;;;3.70;66.74;100964.78;2080512;28;19963;-85
2021/04/03 02:05:48;;;;;;;;;;;;;;;3.70;66.45;100964.78;2088893;28;20021;-85
2021/04/03 02:06:49;;;;;;;13.23;6.28;;;;;;;3.74;66.48;100960.53;2085645;28;19923;-85
2021/04/03 02:07:51;;;;;;;8.85;6.15;;;;;;;3.72;66.45;100952.78;2086086;28;20135;-85
2021/04/03 02:08:52;;;;;;;8.80;6.57;;;;;;;3.72;66.53;100957.94;2087045;28;20029;-85
2021/04/03 02:09:55;;;;;;;9.70;5.93;;;;;;;3.73;66.58;100964.84;2081049;28;20025;-82
2021/04/03 02:11:02;;;;;;;13.95;6.65;;;;;;;3.73;66.85;100963.94;2080812;28;20037;-82
2021/04/03 02:12:04;;;;;;;12.88;5.90;;;;;;;3.74;66.39;100956.25;2081347;28;20047;-83
2021/04/03 02:13:06;;;;;;;9.98;6.10;;;;;;;3.80;66.08;100958.03;2087097;28;20028;-83
2021/04/03 02:14:07;;;;;;;11.25;5.60;;;;;;;3.81;66.10;100954.59;2085159;28;20028;-80
2021/04/03 02:15:10;;;;;;;11.80;5.97;;;;;;;3.81;66.17;100959.75;2088354;28;20032;-80
2021/04/03 02:16:11;;;;;;;9.55;5.45;;;;;;;3.82;65.98;100958.03;2086648;28;20037;-80
2021/04/03 02:17:13;;;;;;;9.13;5.47;;;;;;;3.86;65.16;100954.66;2094042;28;20021;-80
2021/04/03 02:18:16;;;;;;;9.68;5.20;;;;;;;3.89;65.21;100963.28;2094142;28;20044;-79
2021/04/03 02:19:19;;;;;;;7.93;5.32;;;;;;;3.93;65.59;100963.28;2082422;28;20041;-79
2021/04/03 02:20:20;;;;;;;8.50;5.10;;;;;;;3.94;65.69;100967.59;2089496;28;20029;-80
2021/04/03 02:21:21;;;;;;;10.57;5.32;;;;;;;3.95;65.82;100966.75;2089830;28;20475;-80
2021/04/03 02:22:22;;;;;;;10.88;5.60;;;;;;;3.94;65.40;100971.06;2089206;28;20527;-80
2021/04/03 02:23:22;;;;;;;8.82;5.13;;;;;;;3.94;66.08;100972.75;2081698;28;20444;-80
2021/04/03 02:24:23;;;;;;;10.57;5.70;;;;;;;3.94;65.34;100973.63;2089218;28;20048;-80
2021/04/03 02:25:23;;;;;;;9.93;5.53;;;;;;;3.94;65.78;100968.47;2090404;28;20491;-80
2021/04/03 02:26:24;;;;;;;10.30;5.63;;;;;;;3.95;65.04;100970.22;2090267;28;20035;-80
2021/04/03 02:27:24;;;;;;;9.50;5.63;;;;;;;3.97;64.59;100968.47;2090015;28;20074;-79
2021/04/03 02:28:25;;;;;;;7.03;5.27;;;;;;;3.97;64.68;100963.31;2089892;28;20028;-80
2021/04/03 02:29:25;;;;;;;9.75;5.40;;;;;;;4.00;65.03;100972.81;2091832;28;20053;-80
2021/04/03 02:30:26;;;;;;;12.25;5.60;;;;;;;3.99;65.43;100966.78;2091007;28;20029;-80
2021/04/03 02:31:28;;;;;;;8.83;5.10;;;;;;;3.97;64.80;100958.16;2091159;28;20025;-80
2021/04/03 02:32:28;;;;;;;10.98;5.30;;;;;;;3.98;65.34;100965.06;2089417;28;20033;-79
2021/04/03 02:33:28;;;;;;;11.87;5.10;;;;;;;3.99;65.92;100965.94;2083518;28;20811;-80
2021/04/03 02:34:30;;;;;;;9.70;5.93;;;;;;;4.00;66.24;100968.53;2082350;28;20033;-80
2021/04/03 02:35:31;;;;;;;6.80;5.10;;;;;;;3.99;66.35;100964.22;2081772;28;20501;-80
2021/04/03 02:36:31;;;;;;;9.43;5.40;;;;;;;4.00;66.28;100973.69;2085151;28;20025;-80
2021/04/03 02:37:31;;;;;;;10.60;5.50;;;;;;;4.01;66.15;100972.81;2090006;28;20025;-80
2021/04/03 02:38:32;;;;;;;9.13;5.57;;;;;;;4.00;65.96;100978.84;2089358;28;20155;-79
2021/04/03 02:39:32;;;;;;;12.47;4.80;;;;;;;4.01;65.48;100969.41;2089918;28;20074;-80
2021/04/03 02:40:33;;;;;;;9.70;5.03;;;;;;;4.01;65.63;100977.13;2090358;28;20100;-80
2021/04/03 02:41:46;;;;;;;10.40;4.70;;;;;;;3.99;65.32;100964.22;2089972;28;20025;-80
2021/04/03 02:43:24;;;;;;;7.30;4.72;;;;;;;4.00;65.40;100968.53;2086293;28;20037;-80
2021/04/03 02:44:30;;;;;;;13.15;5.00;;;;;;;4.01;65.16;100972.81;2086179;28;20429;-80
2021/04/03 02:45:35;;;;;;;8.82;5.35;;;;;;;4.01;65.53;100972.81;2087511;28;20024;-80
2021/04/03 02:46:41;;;;;;;11.35;5.20;;;;;;;4.03;65.10;100971.13;2090485;28;20391;-80
2021/04/03 02:47:56;;;;;;;8.07;5.30;;;;;;;4.05;64.98;100976.31;2089391;28;20082;-80
2021/04/03 02:49:11;;;;;;;8.82;4.90;;;;;;;4.05;64.64;100972.03;2087949;28;20017;-79
2021/04/03 02:50:17;;;;;;;11.98;5.30;;;;;;;4.05;64.60;100974.59;2090903;28;20052;-89
2021/04/03 02:51:25;;;;;;;10.57;5.40;;;;;;;4.05;65.39;100974.59;2090421;28;20029;-89
2021/04/03 02:52:28;;;;;;;12.00;5.10;;;;;;;4.04;65.40;100979.72;2090284;28;20456;-89
2021/04/03 02:53:31;;;;;;;10.05;5.03;;;;;;;4.07;64.67;100973.72;2089469;28;20036;-89
2021/04/03 02:54:34;;;;;;;8.82;5.25;;;;;;;4.09;64.35;100982.34;2089480;28;20087;-90
2021/04/03 02:55:37;;;;;;;12.00;4.85;;;;;;;4.07;64.28;100971.13;2089649;28;20025;-89
2021/04/03 02:56:39;;;;;;;8.60;4.65;;;;;;;4.07;64.54;100976.31;2090395;28;20025;-89
2021/04/03 02:57:41;;;;;;;11.05;5.10;;;;;;;4.07;64.52;100979.75;2089644;28;20029;-89
2021/04/03 02:58:44;;;;;;;10.23;4.70;;;;;;;4.08;64.32;100975.44;2089792;28;20032;-89
2021/04/03 02:59:49;;;;;;;10.60;4.90;;;;;;;4.11;64.20;100980.66;2089354;28;20013;-89
2021/04/03 03:00:52;;;;;;;12.77;4.72;;;;;;;4.11;63.77;100975.50;2081592;28;20530;-91
2021/04/03 03:01:54;;;;;;;9.15;4.90;;;;;;;4.11;63.83;100981.53;2089183;28;20506;-89
2021/04/03 03:02:55;;;;;;;7.93;4.35;;;;;;;4.13;63.91;100984.13;2090101;28;20388;-89
2021/04/03 03:03:56;;;;;;;9.13;4.68;;;;;;;4.11;64.38;100989.28;2089552;28;20107;-89
2021/04/03 03:04:57;;;;;;;8.65;4.63;;;;;;;4.13;64.06;100982.38;2089406;28;20029;-89
2021/04/03 03:05:58;;;;;;;6.80;4.38;;;;;;;4.12;63.96;100987.53;2089541;28;20078;-89
2021/04/03 03:06:58;;;;;;;7.78;4.47;;;;;;;4.15;63.63;100987.59;2090325;28;20025;-89
2021/04/03 03:08:00;;;;;;;10.93;4.60;;;;;;;4.14;63.60;100980.69;2090001;28;20383;-89
2021/04/03 03:09:02;;;;;;;9.57;4.57;;;;;;;4.15;63.81;100985.84;2090449;28;20050;-89
2021/04/03 03:10:04;;;;;;;7.97;4.43;;;;;;;4.14;64.04;100985.84;2090100;28;20120;-89
2021/04/03 03:11:04;;;;;;;8.90;4.88;;;;;;;4.16;64.49;100989.31;2089903;28;20029;-89
2021/04/03 03:12:08;;;;;;;10.60;4.50;;;;;;;4.16;63.81;100986.72;2089830;28;20104;-89
2021/04/03 03:13:09;;;;;;;10.98;4.80;;;;;;;4.19;63.73;100989.31;2083999;28;20242;-89
2021/04/03 03:14:12;;;;;;;8.23;4.65;;;;;;;4.19;63.74;100985.03;2087910;28;20094;-89
2021/04/03 03:15:15;;;;;;;9.40;4.43;;;;;;;4.20;63.44;100986.78;2084390;28;20033;-89
2021/04/03 03:16:15;;;;;;;11.15;4.35;;;;;;;4.23;63.46;100993.66;2089745;28;20128;-89
2021/04/03 03:17:16;;;;;;;9.80;4.07;;;;;;;4.24;63.41;100986.78;2089012;28;20627;-89
2021/04/03 03:18:18;;;;;;;9.73;4.20;;;;;;;4.24;63.48;100984.19;2089529;28;20094;-89
2021/04/03 03:19:19;;;;;;;8.48;4.22;;;;;;;4.23;63.61;100985.94;2090136;28;20032;-89
2021/04/03 03:20:20;;;;;;;9.88;4.03;;;;;;;4.20;63.53;100989.34;2090164;28;20025;-89
2021/04/03 03:21:20;;;;;;;7.83;4.20;;;;;;;4.21;63.94;100985.03;2089883;28;20395;-89
2021/04/03 03:22:21;;;;;;;11.07;4.20;;;;;;;4.23;63.74;100983.34;2089688;28;20890;-89
2021/04/03 03:23:22;;;;;;;8.68;4.60;;;;;;;4.24;63.46;100986.78;2090089;28;20032;-89
2021/04/03 03:24:22;;;;;;;10.77;4.57;;;;;;;4.24;63.82;100979.03;2089992;28;20044;-89
2021/04/03 03:25:23;;;;;;;7.38;4.18;;;;;;;4.26;63.55;100977.34;2090033;28;20510;-89
2021/04/03 03:26:24;;;;;;;9.15;4.10;;;;;;;4.26;63.15;100985.09;2090045;28;20394;-89
2021/04/03 03:27:25;;;;;;;11.73;4.30;;;;;;;4.31;63.50;100978.25;2090037;28;20092;-89
2021/04/03 03:28:26;;;;;;;8.23;4.35;;;;;;;4.26;63.96;100980.78;2090179;28;20087;-89
2021/04/03 03:29:27;;;;;;;10.48;4.07;;;;;;;4.25;64.39;100976.50;2090196;28;20064;-89
2021/04/03 03:30:28;;;;;;;7.82;4.40;;;;;;;4.26;64.15;100983.34;2090125;28;20028;-89
2021/04/03 03:31:28;;;;;;;9.25;4.78;;;;;;;4.26;63.88;100985.09;2090014;28;20040;-89
2021/04/03 03:32:29;;;;;;;8.02;4.68;;;;;;;4.25;64.17;100981.66;2089996;28;20028;-89
2021/04/03 03:33:30;;;;;;;9.48;4.57;;;;;;;4.25;64.94;100986.81;2090126;28;20394;-89
2021/04/03 03:34:30;;;;;;;8.37;4.63;;;;;;;4.25;64.74;100986.81;2089390;28;20025;-90
2021/04/03 03:35:31;;;;;;;9.73;5.30;;;;;;;4.27;64.59;100982.50;2081105;28;20025;-89
2021/04/03 03:36:35;;;;;;;12.35;4.80;;;;;;;4.27;64.91;100976.50;2082948;28;20562;-88
2021/04/03 03:37:36;;;;;;;8.52;4.55;;;;;;;4.25;64.73;100984.22;2081124;28;20034;-89
2021/04/03 03:38:37;;;;;;;11.65;4.45;;;;;;;4.24;65.14;100986.78;2081115;28;20450;-89
2021/04/03 03:39:39;;;;;;;6.63;4.20;;;;;;;4.25;65.61;100986.81;2081952;28;20037;-89
2021/04/03 03:40:39;;;;;;;8.65;4.25;;;;;;;4.25;65.70;100978.19;2081940;28;20112;-89
2021/04/03 03:41:40;;;;;;;8.67;4.40;;;;;;;4.23;65.43;100975.59;2081800;28;20029;-89
2021/04/03 03:42:41;;;;;;;6.30;4.40;;;;;;;4.22;65.48;100973.88;2084795;28;20028;-89
2021/04/03 03:43:42;;;;;;;9.00;4.60;;;;;;;4.20;65.74;100973.00;2089806;28;20028;-89
2021/04/03 03:44:42;;;;;;;7.72;4.72;;;;;;;4.20;65.62;100973.00;2083421;28;20384;-89
2021/04/03 03:45:44;;;;;;;7.60;4.40;;;;;;;4.19;66.17;100973.84;2088448;28;20029;-89
2021/04/03 03:46:44;;;;;;;9.25;4.65;;;;;;;4.14;66.07;100971.22;2089799;28;20029;-89
2021/04/03 03:47:44;;;;;;;13.93;4.67;;;;;;;4.14;66.41;100975.53;2089998;28;20056;-89
2021/04/03 03:48:45;;;;;;;7.07;4.80;;;;;;;4.15;66.38;100974.69;2090152;28;20459;-88
2021/04/03 03:49:45;;;;;;;9.53;4.63;;;;;;;4.18;66.58;100974.69;2090194;28;20095;-89
2021/04/03 03:50:46;;;;;;;10.47;4.40;;;;;;;4.17;66.07;100976.41;2090402;28;20387;-88
2021/04/03 03:51:46;;;;;;;10.53;4.70;;;;;;;4.17;65.87;100976.41;2090653;28;20041;-89
2021/04/03 03:52:46;;;;;;;5.97;4.10;;;;;;;4.15;66.60;100972.94;2090818;28;20443;-89
2021/04/03 03:53:47;;;;;;;8.50;4.10;;;;;;;4.18;66.42;100974.69;2090738;28;20017;-89
2021/04/03 03:54:47;;;;;;;9.23;4.20;;;;;;;4.14;66.30;100978.97;2090624;28;20365;-89
2021/04/03 03:55:47;;;;;;;8.60;4.17;;;;;;;4.15;65.94;100978.09;2091027;28;20210;-89
2021/04/03 03:56:48;;;;;;;8.27;3.83;;;;;;;4.14;66.32;100972.94;2098805;28;20023;-88
2021/04/03 03:57:48;;;;;;;7.33;4.43;;;;;;;4.17;66.30;100975.53;2099368;28;20431;-88
2021/04/03 03:58:49;;;;;;;6.33;4.10;;;;;;;4.17;66.00;100984.16;2098872;28;20068;-88
2021/04/03 03:59:49;;;;;;;8.23;4.30;;;;;;;4.19;66.05;100981.56;2098648;28;20041;-88
2021/04/03 04:00:49;;;;;;;8.53;3.93;;;;;;;4.21;65.73;100978.16;2094944;28;20024;-88
2021/04/03 04:01:50;;;;;;;7.57;4.40;;;;;;;4.21;65.91;100982.47;2085040;28;20099;-89
2021/04/03 04:02:54;;;;;;;8.60;4.20;;;;;;;4.21;65.91;100983.31;2090050;28;20092;-89
2021/04/03 04:03:54;;;;;;;8.57;4.45;;;;;;;4.22;65.97;100984.19;2096727;28;20410;-88
2021/04/03 04:04:55;;;;;;;6.20;4.20;;;;;;;4.22;66.11;100981.63;2097053;28;20052;-89
2021/04/03 04:05:55;;;;;;;7.27;4.30;;;;;;;4.26;66.06;100990.25;2088319;28;20548;-89
2021/04/03 04:06:55;;;;;;;9.30;4.20;;;;;;;4.25;66.06;100989.38;2088542;28;20021;-89
2021/04/03 04:07:56;;;;;;;8.17;4.17;;;;;;;4.26;66.24;100985.09;2089382;28;20380;-89
2021/04/03 04:08:56;;;;;;;5.37;4.10;;;;;;;4.24;66.30;100986.78;2088932;28;20017;-89
2021/04/03 04:09:58;;;;;;;7.40;3.90;;;;;;;4.23;66.70;100985.94;2080742;28;20272;-89
2021/04/03 04:10:58;;;;;;;;;;;;;;;4.25;66.73;100985.94;2081939;28;20020;-89
2021/04/03 04:12:04;;;;;;;7.72;3.80;;;;;;;4.25;66.59;100989.38;2081311;28;19959;-88
2021/04/03 04:13:04;;;;;;;9.57;4.20;;;;;;;4.26;66.55;100993.66;2087987;28;20040;-85
2021/04/03 04:14:04;;;;;;;9.30;4.03;;;;;;;4.30;66.63;100984.28;2087097;28;20035;-84
2021/04/03 04:15:07;;;;;;;9.00;4.33;;;;;;;4.31;66.61;100988.59;2085485;28;20033;-84
2021/04/03 04:16:07;;;;;;;11.05;4.38;;;;;;;4.31;66.56;100994.59;2095133;28;20024;-84
2021/04/03 04:17:07;;;;;;;9.73;4.30;;;;;;;4.29;66.84;100996.28;2097169;28;20032;-84
2021/04/03 04:18:08;;;;;;;9.50;4.40;;;;;;;4.35;66.74;100996.38;2089730;28;20502;-84
2021/04/03 04:19:08;;;;;;;8.47;4.30;;;;;;;4.33;66.62;100998.06;2089265;28;20131;-84
2021/04/03 04:20:09;;;;;;;6.53;4.00;;;;;;;4.34;66.46;100999.78;2088277;28;20032;-85
2021/04/03 04:21:09;;;;;;;8.13;4.35;;;;;;;4.35;66.65;100991.19;2088566;28;20123;-84
2021/04/03 04:22:10;;;;;;;9.27;4.70;;;;;;;4.33;66.83;101000.63;2089474;28;20032;-84
2021/04/03 04:23:10;;;;;;;8.87;4.77;;;;;;;4.32;67.11;100996.31;2089292;28;20041;-84
2021/04/03 04:24:10;;;;;;;6.20;4.43;;;;;;;4.33;67.05;101003.22;2089463;28;20056;-84
2021/04/03 04:25:11;;;;;;;10.20;5.30;;;;;;;4.35;66.94;101004.09;2089441;28;20033;-84
2021/04/03 04:26:12;;;;;;;9.20;4.82;;;;;;;4.35;67.19;101000.63;2089547;28;20507;-84
2021/04/03 04:27:12;;;;;;;9.07;4.83;;;;;;;4.33;67.10;101005.81;2089355;28;20032;-84
2021/04/03 04:28:13;;;;;;;11.43;5.00;;;;;;;4.38;67.10;101004.97;2089438;28;20052;-85
2021/04/03 04:29:13;;;;;;;8.90;5.30;;;;;;;4.36;67.49;101008.38;2089399;28;20430;-84
2021/04/03 04:30:14;;;;;;;10.35;5.88;;;;;;;4.34;67.63;101006.66;2089303;28;20032;-85
2021/04/03 04:31:14;;;;;;;11.15;5.22;;;;;;;4.36;67.56;101004.94;2088826;28;20045;-84
2021/04/03 04:32:16;;;;;;;11.13;5.40;;;;;;;4.35;67.49;101006.69;2086506;28;20468;-84
2021/04/03 04:33:16;;;;;;;;;;;;;;;4.33;67.49;101003.22;2089510;28;20031;-84
2021/04/03 04:34:16;;;;;;;7.72;4.80;;;;;;;4.35;67.30;101006.69;2088925;28;19927;-84
2021/04/03 04:35:17;;;;;;;8.00;4.97;;;;;;;4.39;67.20;101007.56;2088438;28;20085;-84
2021/04/03 04:36:17;;;;;;;9.70;4.70;;;;;;;4.36;67.38;101003.22;2088783;28;20025;-84
2021/04/03 04:37:17;;;;;;;6.97;4.87;;;;;;;4.39;67.55;101012.72;2087974;28;20108;-84
2021/04/03 04:38:18;;;;;;;8.63;5.00;;;;;;;4.39;67.95;101011.84;2088772;28;20028;-84
2021/04/03 04:39:18;;;;;;;8.65;5.10;;;;;;;4.43;67.29;101009.31;2089523;28;20049;-84
2021/04/03 04:40:19;;;;;;;10.20;5.30;;;;;;;4.43;67.32;101011.03;2089393;28;20033;-84
2021/04/03 04:41:19;;;;;;;8.10;5.00;;;;;;;4.40;67.39;101018.75;2089144;28;20079;-84
2021/04/03 04:42:20;;;;;;;7.30;4.50;;;;;;;4.41;67.67;101015.31;2089446;28;20078;-84
2021/04/03 04:43:21;;;;;;;6.20;4.87;;;;;;;4.43;67.73;101018.78;2084885;28;20025;-84
2021/04/03 04:44:22;;;;;;;;;;;;;;;4.42;67.76;101023.06;2076418;28;20029;-84
2021/04/03 04:45:22;;;;;;;10.43;5.75;;;;;;;4.45;67.37;101017.94;2084946;28;19917;-84
2021/04/03 04:46:22;;;;;;;7.27;4.80;;;;;;;4.43;67.58;101019.63;2081221;28;20055;-84
2021/04/03 04:47:22;;;;;;;9.33;5.20;;;;;;;4.45;67.27;101017.09;2080583;28;20443;-84
2021/04/03 04:48:23;;;;;;;9.73;5.20;;;;;;;4.44;67.35;101010.19;2080524;28;20030;-84
2021/04/03 04:49:23;;;;;;;8.07;5.90;;;;;;;4.50;67.28;101017.97;2081424;28;20029;-84
2021/04/03 04:50:23;;;;;;;9.13;5.67;;;;;;;4.48;67.15;101017.09;2081265;28;20021;-84
2021/04/03 04:51:25;;;;;;;8.20;5.13;;;;;;;4.51;66.83;101019.69;2081007;28;20476;-84
2021/04/03 04:52:25;;;;;;;;;;;;;;;4.49;66.97;101021.41;2081638;28;20029;-84
2021/04/03 04:53:25;;;;;;;10.25;6.00;;;;;;;4.48;67.34;101017.09;2088792;28;19919;-84
2021/04/03 04:54:26;;;;;;;12.97;6.33;;;;;;;4.48;67.08;101017.09;2089294;28;20059;-84